Time,TemperatureF,DewpointF,PressureIn,WindDirection,WindDirectionDegrees,WindSpeedMPH,WindSpeedGustMPH,Humidity,HourlyPrecipIn,Conditions,Clouds,dailyrainin,SoftwareType,DateUTC
2013-10-02 00:00:00,65.6,61.0,29.83,South,175,3.0,8.0,85,0.00,,---,0.00,VWS V14.01,2013-10-02 04:00:00,
2013-10-02 00:01:00,65.4,60.5,29.86,West,275,1.0,6.0,84,0.00,,---,0.00,VWS V14.01,2013-10-02 04:01:00,
2013-10-02 00:06:00,65.2,59.9,29.86,West,273,1.0,6.0,83,0.00,,---,0.00,VWS V14.01,2013-10-02 04:06:00,
2013-10-02 00:11:00,65.1,59.8,29.86,South,181,2.0,6.0,83,0.00,,---,0.00,VWS V14.01,2013-10-02 04:11:00,
2013-10-02 00:16:00,64.9,59.3,29.86,South,181,2.0,6.0,82,0.00,,---,0.00,VWS V14.01,2013-10-02 04:16:00,
2013-10-02 00:21:00,64.6,59.3,29.86,SSW,206,2.0,6.0,83,0.00,,---,0.00,VWS V14.01,2013-10-02 04:21:00,
2013-10-02 00:26:00,64.5,58.9,29.86,SSW,206,2.0,6.0,82,0.00,,---,0.00,VWS V14.01,2013-10-02 04:26:00,
2013-10-02 00:30:00,65.3,61.0,29.84,WSW,251,2.0,8.0,86,0.00,,---,0.00,VWS V14.01,2013-10-02 04:30:00,
2013-10-02 00:31:00,64.1,58.5,29.87,SSW,206,2.0,2.0,82,0.00,,---,0.00,VWS V14.01,2013-10-02 04:31:00,
2013-10-02 00:36:00,64.0,58.4,29.86,SSW,206,2.0,5.0,82,0.00,,---,0.00,VWS V14.01,2013-10-02 04:36:00,
2013-10-02 00:41:00,63.5,57.6,29.87,SSW,206,0.0,5.0,81,0.00,,---,0.00,VWS V14.01,2013-10-02 04:41:00,
2013-10-02 00:46:00,63.3,57.4,29.87,SSW,206,1.0,5.0,81,0.00,,---,0.00,VWS V14.01,2013-10-02 04:46:00,
2013-10-02 00:51:00,63.2,56.9,29.87,SSW,206,1.0,5.0,80,0.00,,---,0.00,VWS V14.01,2013-10-02 04:51:00,
2013-10-02 00:56:00,62.8,56.2,29.88,SSW,205,1.0,5.0,79,0.00,,---,0.00,VWS V14.01,2013-10-02 04:56:00,
2013-10-02 01:00:00,65.4,60.5,29.85,WSW,257,6.0,7.0,84,0.00,,---,0.00,VWS V14.01,2013-10-02 05:00:00,
2013-10-02 01:01:00,62.7,55.4,29.88,SSW,204,2.0,4.0,77,0.01,,---,0.01,VWS V14.01,2013-10-02 05:01:00,
2013-10-02 01:06:00,62.7,55.0,29.88,SSW,211,2.0,5.0,76,0.01,,---,0.01,VWS V14.01,2013-10-02 05:06:00,
2013-10-02 01:11:00,62.7,54.7,29.88,West,262,3.0,5.0,75,0.01,,---,0.01,VWS V14.01,2013-10-02 05:11:00,
2013-10-02 01:16:00,62.6,53.8,29.88,WSW,245,4.0,6.0,73,0.01,,---,0.01,VWS V14.01,2013-10-02 05:16:00,
2013-10-02 01:21:00,62.5,53.7,29.88,WSW,245,3.0,6.0,73,0.01,,---,0.01,VWS V14.01,2013-10-02 05:21:00,
2013-10-02 01:26:00,62.7,52.8,29.89,West,272,0.0,6.0,70,0.01,,---,0.01,VWS V14.01,2013-10-02 05:26:00,
2013-10-02 01:30:00,64.3,58.7,29.86,SSW,206,2.0,6.0,82,0.00,,---,0.00,VWS V14.01,2013-10-02 05:30:00,
2013-10-02 01:31:00,62.7,52.4,29.89,WSW,241,2.0,6.0,69,0.01,,---,0.01,VWS V14.01,2013-10-02 05:31:00,
2013-10-02 01:36:00,62.7,51.6,29.89,NNW,336,1.0,8.0,67,0.01,,---,0.01,VWS V14.01,2013-10-02 05:36:00,
2013-10-02 01:41:00,62.8,51.3,29.89,WNW,299,1.0,8.0,66,0.01,,---,0.01,VWS V14.01,2013-10-02 05:41:00,
2013-10-02 01:46:00,62.7,51.2,29.89,West,270,1.0,8.0,66,0.01,,---,0.01,VWS V14.01,2013-10-02 05:46:00,
2013-10-02 01:51:00,62.7,51.6,29.90,West,271,1.0,8.0,67,0.01,,---,0.01,VWS V14.01,2013-10-02 05:51:00,
2013-10-02 01:56:00,62.5,51.4,29.90,NW,316,2.0,8.0,67,0.01,,---,0.01,VWS V14.01,2013-10-02 05:56:00,
2013-10-02 02:00:00,62.7,55.8,29.88,SSW,204,0.0,5.0,78,0.01,,---,0.01,VWS V14.01,2013-10-02 06:00:00,
2013-10-02 02:01:00,62.5,51.4,29.90,WNW,288,0.0,3.0,67,0.00,,---,0.01,VWS V14.01,2013-10-02 06:01:00,
2013-10-02 02:07:00,62.2,51.5,29.90,WSW,249,2.0,5.0,68,0.00,,---,0.01,VWS V14.01,2013-10-02 06:07:00,
2013-10-02 02:12:00,62.0,51.3,29.90,West,276,1.0,5.0,68,0.00,,---,0.01,VWS V14.01,2013-10-02 06:12:00,
2013-10-02 02:17:00,61.7,51.4,29.90,West,277,3.0,5.0,69,0.00,,---,0.01,VWS V14.01,2013-10-02 06:17:00,
2013-10-02 02:22:00,61.4,51.2,29.90,WNW,298,2.0,5.0,69,0.00,,---,0.01,VWS V14.01,2013-10-02 06:22:00,
2013-10-02 02:27:00,61.0,50.8,29.91,WSW,252,0.0,5.0,69,0.00,,---,0.01,VWS V14.01,2013-10-02 06:27:00,
2013-10-02 02:30:00,62.5,52.6,29.89,WNW,286,2.0,8.0,70,0.01,,---,0.01,VWS V14.01,2013-10-02 06:30:00,
2013-10-02 02:32:00,60.7,50.9,29.91,WSW,252,0.0,3.0,70,0.00,,---,0.01,VWS V14.01,2013-10-02 06:32:00,
2013-10-02 02:37:00,60.5,51.4,29.91,WSW,252,1.0,3.0,72,0.00,,---,0.01,VWS V14.01,2013-10-02 06:37:00,
2013-10-02 02:42:00,60.0,51.3,29.91,WSW,252,1.0,3.0,73,0.00,,---,0.01,VWS V14.01,2013-10-02 06:42:00,
2013-10-02 02:47:00,59.7,51.0,29.91,WSW,252,1.0,3.0,73,0.00,,---,0.01,VWS V14.01,2013-10-02 06:47:00,
2013-10-02 02:52:00,59.6,51.0,29.92,WSW,253,0.0,3.0,73,0.00,,---,0.01,VWS V14.01,2013-10-02 06:52:00,
2013-10-02 02:57:00,59.2,50.9,29.91,WSW,256,2.0,5.0,74,0.00,,---,0.01,VWS V14.01,2013-10-02 06:57:00,
2013-10-02 03:00:00,62.5,51.4,29.90,WNW,288,1.0,8.0,67,0.01,,---,0.01,VWS V14.01,2013-10-02 07:00:00,
2013-10-02 03:02:00,58.9,50.6,29.91,WSW,256,0.0,2.0,74,0.00,,---,0.01,VWS V14.01,2013-10-02 07:02:00,
2013-10-02 03:07:00,58.7,50.8,29.92,WSW,256,0.0,3.0,75,0.00,,---,0.01,VWS V14.01,2013-10-02 07:07:00,
2013-10-02 03:12:00,58.8,50.5,29.92,WNW,291,1.0,4.0,74,0.00,,---,0.01,VWS V14.01,2013-10-02 07:12:00,
2013-10-02 03:17:00,59.1,50.5,29.92,WNW,291,0.0,4.0,73,0.00,,---,0.01,VWS V14.01,2013-10-02 07:17:00,
2013-10-02 03:22:00,59.4,50.0,29.92,WNW,291,1.0,4.0,71,0.00,,---,0.01,VWS V14.01,2013-10-02 07:22:00,
2013-10-02 03:27:00,59.4,50.0,29.92,WNW,291,0.0,6.0,71,0.00,,---,0.01,VWS V14.01,2013-10-02 07:27:00,
2013-10-02 03:30:00,60.8,51.0,29.91,WSW,252,0.0,5.0,70,0.00,,---,0.01,VWS V14.01,2013-10-02 07:30:00,
2013-10-02 03:32:00,59.4,49.6,29.92,WNW,291,1.0,3.0,70,0.00,,---,0.01,VWS V14.01,2013-10-02 07:32:00,
2013-10-02 03:37:00,59.4,49.2,29.92,WNW,291,0.0,4.0,69,0.00,,---,0.01,VWS V14.01,2013-10-02 07:37:00,
2013-10-02 03:42:00,59.4,49.2,29.92,WNW,292,0.0,4.0,69,0.00,,---,0.01,VWS V14.01,2013-10-02 07:42:00,
2013-10-02 03:47:00,59.4,48.8,29.92,NNW,345,0.0,6.0,68,0.00,,---,0.01,VWS V14.01,2013-10-02 07:47:00,
2013-10-02 03:52:00,59.4,48.8,29.92,NNW,345,2.0,6.0,68,0.00,,---,0.01,VWS V14.01,2013-10-02 07:52:00,
2013-10-02 03:57:00,59.3,48.8,29.92,NW,305,6.0,7.0,68,0.00,,---,0.01,VWS V14.01,2013-10-02 07:57:00,
2013-10-02 04:00:00,59.1,50.8,29.91,WSW,256,0.0,5.0,74,0.00,,---,0.01,VWS V14.01,2013-10-02 08:00:00,
2013-10-02 04:02:00,59.4,48.8,29.92,WNW,302,0.0,5.0,68,0.00,,---,0.01,VWS V14.01,2013-10-02 08:02:00,
2013-10-02 04:07:00,59.4,48.5,29.93,NNE,28,0.0,5.0,67,0.00,,---,0.01,VWS V14.01,2013-10-02 08:07:00,
2013-10-02 04:12:00,59.4,48.5,29.93,WSW,249,1.0,6.0,67,0.00,,---,0.01,VWS V14.01,2013-10-02 08:12:00,
2013-10-02 04:17:00,59.4,48.5,29.93,West,278,1.0,6.0,67,0.00,,---,0.01,VWS V14.01,2013-10-02 08:17:00,
2013-10-02 04:22:00,59.4,48.5,29.93,North,356,2.0,6.0,67,0.00,,---,0.01,VWS V14.01,2013-10-02 08:22:00,
2013-10-02 04:27:00,59.3,48.8,29.93,North,353,1.0,7.0,68,0.00,,---,0.01,VWS V14.01,2013-10-02 08:27:00,
2013-10-02 04:30:00,59.4,50.0,29.92,WNW,291,2.0,6.0,71,0.00,,---,0.01,VWS V14.01,2013-10-02 08:30:00,
2013-10-02 04:32:00,59.3,48.4,29.94,NNW,331,0.0,3.0,67,0.00,,---,0.01,VWS V14.01,2013-10-02 08:32:00,
2013-10-02 04:37:00,59.1,48.2,29.94,SW,219,0.0,5.0,67,0.00,,---,0.01,VWS V14.01,2013-10-02 08:37:00,
2013-10-02 04:43:00,58.9,48.0,29.94,WNW,298,3.0,7.0,67,0.00,,---,0.01,VWS V14.01,2013-10-02 08:43:00,
2013-10-02 04:47:00,58.8,47.9,29.94,NW,314,2.0,7.0,67,0.00,,---,0.01,VWS V14.01,2013-10-02 08:47:00,
2013-10-02 04:53:00,58.5,47.6,29.94,NW,311,2.0,7.0,67,0.00,,---,0.01,VWS V14.01,2013-10-02 08:53:00,
2013-10-02 04:58:00,58.4,47.9,29.94,NW,308,3.0,7.0,68,0.00,,---,0.01,VWS V14.01,2013-10-02 08:58:00,
2013-10-02 05:00:00,59.4,48.5,29.92,NNW,337,5.0,7.0,67,0.00,,---,0.01,VWS V14.01,2013-10-02 09:00:00,
2013-10-02 05:03:00,58.2,47.3,29.94,West,269,0.0,5.0,67,0.00,,---,0.01,VWS V14.01,2013-10-02 09:03:00,
2013-10-02 05:08:00,58.2,47.3,29.95,West,270,0.0,5.0,67,0.00,,---,0.01,VWS V14.01,2013-10-02 09:08:00,
2013-10-02 05:13:00,58.2,47.3,29.95,SE,137,2.0,5.0,67,0.00,,---,0.01,VWS V14.01,2013-10-02 09:13:00,
2013-10-02 05:18:00,58.0,47.1,29.95,SSE,168,2.0,5.0,67,0.00,,---,0.01,VWS V14.01,2013-10-02 09:18:00,
2013-10-02 05:23:00,57.9,47.4,29.95,South,186,0.0,5.0,68,0.00,,---,0.01,VWS V14.01,2013-10-02 09:23:00,
2013-10-02 05:28:00,57.3,46.8,29.95,South,186,3.0,5.0,68,0.00,,---,0.01,VWS V14.01,2013-10-02 09:28:00,
2013-10-02 05:30:00,59.3,48.4,29.93,NNW,331,0.0,7.0,67,0.00,,---,0.01,VWS V14.01,2013-10-02 09:30:00,
2013-10-02 05:33:00,56.5,46.8,29.96,SW,222,0.0,5.0,70,0.00,,---,0.01,VWS V14.01,2013-10-02 09:33:00,
2013-10-02 05:38:00,56.2,46.9,29.96,SW,222,2.0,5.0,71,0.00,,---,0.01,VWS V14.01,2013-10-02 09:38:00,
2013-10-02 05:43:00,56.1,46.8,29.96,SW,222,1.0,5.0,71,0.00,,---,0.01,VWS V14.01,2013-10-02 09:43:00,
2013-10-02 05:48:00,56.2,46.9,29.96,SW,222,1.0,5.0,71,0.00,,---,0.01,VWS V14.01,2013-10-02 09:48:00,
2013-10-02 05:53:00,56.2,46.9,29.96,SW,225,2.0,5.0,71,0.00,,---,0.01,VWS V14.01,2013-10-02 09:53:00,
2013-10-02 05:58:00,56.4,46.8,29.96,NNW,328,1.0,5.0,70,0.00,,---,0.01,VWS V14.01,2013-10-02 09:58:00,
2013-10-02 06:00:00,58.2,47.7,29.94,NW,307,0.0,7.0,68,0.00,,---,0.01,VWS V14.01,2013-10-02 10:00:00,
2013-10-02 06:03:00,56.1,46.8,29.96,SW,228,0.0,3.0,71,0.00,,---,0.01,VWS V14.01,2013-10-02 10:03:00,
2013-10-02 06:08:00,56.2,46.9,29.96,SW,228,1.0,3.0,71,0.00,,---,0.01,VWS V14.01,2013-10-02 10:08:00,
2013-10-02 06:13:00,56.0,46.7,29.96,SW,228,2.0,3.0,71,0.00,,---,0.01,VWS V14.01,2013-10-02 10:13:00,
2013-10-02 06:18:00,55.0,46.5,29.97,SW,228,4.0,5.0,73,0.00,,---,0.01,VWS V14.01,2013-10-02 10:18:00,
2013-10-02 06:23:00,54.2,46.1,29.97,SW,228,4.0,5.0,74,0.00,,---,0.01,VWS V14.01,2013-10-02 10:23:00,
2013-10-02 06:28:00,52.9,45.2,29.97,SW,228,2.0,5.0,75,0.00,,---,0.01,VWS V14.01,2013-10-02 10:28:00,
2013-10-02 06:30:00,57.0,47.3,29.95,South,186,3.0,5.0,70,0.00,,---,0.01,VWS V14.01,2013-10-02 10:30:00,
2013-10-02 06:33:00,52.1,45.5,29.97,SW,228,2.0,3.0,78,0.00,,---,0.01,VWS V14.01,2013-10-02 10:33:00,
2013-10-02 06:38:00,51.8,45.2,29.97,SW,228,3.0,4.0,78,0.00,,---,0.01,VWS V14.01,2013-10-02 10:38:00,
2013-10-02 06:43:00,51.7,45.1,29.97,SW,228,3.0,5.0,78,0.00,,---,0.01,VWS V14.01,2013-10-02 10:43:00,
2013-10-02 06:48:00,51.4,45.1,29.98,SW,228,2.0,5.0,79,0.00,,---,0.01,VWS V14.01,2013-10-02 10:48:00,
2013-10-02 06:53:00,51.4,45.1,29.98,SW,228,1.0,5.0,79,0.00,,---,0.01,VWS V14.01,2013-10-02 10:53:00,
2013-10-02 06:58:00,51.4,45.8,29.98,SW,228,4.0,5.0,81,0.00,,---,0.01,VWS V14.01,2013-10-02 10:58:00,
2013-10-02 07:00:00,56.2,46.6,29.96,NNW,328,1.0,5.0,70,0.00,,---,0.01,VWS V14.01,2013-10-02 11:00:00,
2013-10-02 07:03:00,51.2,45.2,29.98,SSE,155,5.0,6.0,80,0.00,,---,0.01,VWS V14.01,2013-10-02 11:03:00,
2013-10-02 07:08:00,51.1,45.5,29.99,SSE,155,1.0,6.0,81,0.00,,---,0.01,VWS V14.01,2013-10-02 11:08:00,
2013-10-02 07:13:00,50.9,45.3,29.99,SSE,156,3.0,6.0,81,0.00,,---,0.01,VWS V14.01,2013-10-02 11:13:00,
2013-10-02 07:18:00,51.1,45.8,29.99,SSE,156,2.0,6.0,82,0.00,,---,0.01,VWS V14.01,2013-10-02 11:18:00,
2013-10-02 07:24:00,51.2,45.6,30.00,SSE,156,2.0,6.0,81,0.00,,---,0.01,VWS V14.01,2013-10-02 11:24:00,
2013-10-02 07:29:00,51.1,45.5,30.00,SSE,156,0.0,6.0,81,0.00,,---,0.01,VWS V14.01,2013-10-02 11:29:00,
2013-10-02 07:30:00,52.5,44.8,29.97,SW,228,2.0,5.0,75,0.00,,---,0.01,VWS V14.01,2013-10-02 11:30:00,
2013-10-02 07:34:00,50.8,45.5,30.00,SSE,155,2.0,3.0,82,0.00,,---,0.01,VWS V14.01,2013-10-02 11:34:00,
2013-10-02 07:39:00,50.5,45.2,30.00,SSE,156,2.0,3.0,82,0.00,,---,0.01,VWS V14.01,2013-10-02 11:39:00,
2013-10-02 07:44:00,50.2,45.2,30.00,SSE,156,1.0,3.0,83,0.00,,---,0.01,VWS V14.01,2013-10-02 11:44:00,
2013-10-02 07:49:00,50.1,45.5,30.00,SSE,156,2.0,3.0,84,0.00,,---,0.01,VWS V14.01,2013-10-02 11:49:00,
2013-10-02 07:54:00,49.9,45.3,30.00,SSE,155,0.0,3.0,84,0.00,,---,0.01,VWS V14.01,2013-10-02 11:54:00,
2013-10-02 07:59:00,49.9,45.9,30.00,SSE,155,3.0,4.0,86,0.00,,---,0.01,VWS V14.01,2013-10-02 11:59:00,
2013-10-02 08:00:00,51.4,45.8,29.98,SW,228,2.0,5.0,81,0.00,,---,0.01,VWS V14.01,2013-10-02 12:00:00,
2013-10-02 08:04:00,49.3,44.7,30.01,SSE,156,2.0,4.0,84,0.00,,---,0.01,VWS V14.01,2013-10-02 12:04:00,
2013-10-02 08:09:00,49.3,45.3,30.01,SSE,155,2.0,5.0,86,0.00,,---,0.01,VWS V14.01,2013-10-02 12:09:00,
2013-10-02 08:14:00,49.6,45.6,30.01,SSE,156,2.0,5.0,86,0.00,,---,0.01,VWS V14.01,2013-10-02 12:14:00,
2013-10-02 08:19:00,49.5,45.5,30.02,SSE,155,3.0,5.0,86,0.00,,---,0.01,VWS V14.01,2013-10-02 12:19:00,
2013-10-02 08:24:00,49.8,46.1,30.02,SSE,156,4.0,6.0,87,0.00,,---,0.01,VWS V14.01,2013-10-02 12:24:00,
2013-10-02 08:29:00,49.8,46.1,30.02,SSE,156,4.0,6.0,87,0.00,,---,0.01,VWS V14.01,2013-10-02 12:29:00,
2013-10-02 08:30:00,51.1,45.5,30.00,SSE,155,1.0,6.0,81,0.00,,---,0.01,VWS V14.01,2013-10-02 12:30:00,
2013-10-02 08:34:00,50.3,46.6,30.02,SSE,156,2.0,5.0,87,0.00,,---,0.01,VWS V14.01,2013-10-02 12:34:00,
2013-10-02 08:39:00,50.6,46.9,30.03,SSE,156,4.0,5.0,87,0.00,,---,0.01,VWS V14.01,2013-10-02 12:39:00,
2013-10-02 08:44:00,50.8,46.8,30.03,SSE,155,2.0,5.0,86,0.00,,---,0.01,VWS V14.01,2013-10-02 12:44:00,
2013-10-02 08:49:00,51.1,47.4,30.03,SSE,156,1.0,5.0,87,0.00,,---,0.01,VWS V14.01,2013-10-02 12:49:00,
2013-10-02 08:54:00,51.8,48.1,30.03,SSE,155,3.0,5.0,87,0.00,,---,0.01,VWS V14.01,2013-10-02 12:54:00,
2013-10-02 08:59:00,52.4,48.3,30.04,SSE,156,1.0,5.0,86,0.00,,---,0.01,VWS V14.01,2013-10-02 12:59:00,
2013-10-02 09:00:00,49.8,45.8,30.00,SSE,155,4.0,4.0,86,0.00,,---,0.01,VWS V14.01,2013-10-02 13:00:00,
2013-10-02 09:04:00,53.0,48.6,30.03,SSE,155,2.0,4.0,85,0.00,,---,0.01,VWS V14.01,2013-10-02 13:04:00,
2013-10-02 09:09:00,53.8,49.1,30.03,SSE,149,2.0,4.0,84,0.00,,---,0.01,VWS V14.01,2013-10-02 13:09:00,
2013-10-02 09:14:00,54.5,49.1,30.04,SSE,156,2.0,5.0,82,0.00,,---,0.01,VWS V14.01,2013-10-02 13:14:00,
2013-10-02 09:19:00,55.3,49.9,30.04,SSE,154,0.0,5.0,82,0.00,,---,0.01,VWS V14.01,2013-10-02 13:19:00,
2013-10-02 09:24:00,56.4,51.0,30.04,SSE,155,0.0,5.0,82,0.00,,---,0.01,VWS V14.01,2013-10-02 13:24:00,
2013-10-02 09:29:00,57.3,51.2,30.04,SSE,154,1.0,5.0,80,0.00,,---,0.01,VWS V14.01,2013-10-02 13:29:00,
2013-10-02 09:30:00,49.9,45.9,30.02,SSE,156,1.0,6.0,86,0.00,,---,0.01,VWS V14.01,2013-10-02 13:30:00,
2013-10-02 09:34:00,58.0,51.9,30.04,ENE,77,1.0,2.0,80,0.00,,---,0.01,VWS V14.01,2013-10-02 13:34:00,
2013-10-02 09:39:00,58.6,51.1,30.04,SE,142,0.0,4.0,76,0.00,,---,0.01,VWS V14.01,2013-10-02 13:39:00,
2013-10-02 09:44:00,58.9,51.4,30.04,SSE,159,1.0,4.0,76,0.00,,---,0.01,VWS V14.01,2013-10-02 13:44:00,
2013-10-02 09:49:00,59.1,51.5,30.05,SSE,159,0.0,4.0,76,0.00,,---,0.01,VWS V14.01,2013-10-02 13:49:00,
2013-10-02 09:54:00,59.9,52.7,30.05,SSE,163,2.0,4.0,77,0.00,,---,0.01,VWS V14.01,2013-10-02 13:54:00,
2013-10-02 09:59:00,60.2,51.9,30.05,SSE,164,5.0,5.0,74,0.00,,---,0.01,VWS V14.01,2013-10-02 13:59:00,
2013-10-02 10:00:00,52.4,48.3,30.04,SSE,155,2.0,5.0,86,0.00,,---,0.01,VWS V14.01,2013-10-02 14:00:00,
2013-10-02 10:05:00,60.7,52.0,30.06,South,182,0.0,5.0,73,0.00,,---,0.01,VWS V14.01,2013-10-02 14:05:00,
2013-10-02 10:10:00,60.8,52.1,30.05,SW,228,1.0,5.0,73,0.00,,---,0.01,VWS V14.01,2013-10-02 14:10:00,
2013-10-02 10:15:00,61.3,51.8,30.06,SW,228,3.0,5.0,71,0.00,,---,0.01,VWS V14.01,2013-10-02 14:15:00,
2013-10-02 10:20:00,61.8,51.9,30.06,SW,235,3.0,7.0,70,0.00,,---,0.01,VWS V14.01,2013-10-02 14:20:00,
2013-10-02 10:25:00,62.2,52.3,30.06,WNW,298,5.0,7.0,70,0.00,,---,0.01,VWS V14.01,2013-10-02 14:25:00,
2013-10-02 10:30:00,62.7,51.6,30.06,South,191,2.0,3.0,67,0.00,,---,0.01,VWS V14.01,2013-10-02 14:30:00,
2013-10-02 10:35:00,63.3,51.3,30.06,WSW,256,1.0,5.0,65,0.00,,---,0.01,VWS V14.01,2013-10-02 14:35:00,
2013-10-02 10:40:00,63.8,51.4,30.06,WSW,256,0.0,7.0,64,0.00,,---,0.01,VWS V14.01,2013-10-02 14:40:00,
2013-10-02 10:45:00,64.1,51.7,30.06,West,264,1.0,7.0,64,0.00,,---,0.01,VWS V14.01,2013-10-02 14:45:00,
2013-10-02 10:50:00,64.4,50.7,30.06,West,269,1.0,7.0,61,0.00,,---,0.01,VWS V14.01,2013-10-02 14:50:00,
2013-10-02 10:55:00,64.5,50.3,30.06,WSW,253,4.0,8.0,60,0.00,,---,0.01,VWS V14.01,2013-10-02 14:55:00,
2013-10-02 11:00:00,64.6,51.3,30.07,NW,310,1.0,3.0,62,0.00,,---,0.01,VWS V14.01,2013-10-02 15:00:00,
2013-10-02 11:05:00,64.6,49.0,30.07,West,269,2.0,8.0,57,0.00,,---,0.01,VWS V14.01,2013-10-02 15:05:00,
2013-10-02 11:10:00,64.9,49.8,30.07,SW,218,0.0,8.0,58,0.00,,---,0.01,VWS V14.01,2013-10-02 15:10:00,
2013-10-02 11:15:00,65.2,50.1,30.07,West,263,3.0,9.0,58,0.00,,---,0.01,VWS V14.01,2013-10-02 15:15:00,
2013-10-02 11:20:00,65.2,48.6,30.07,NW,326,3.0,9.0,55,0.00,,---,0.01,VWS V14.01,2013-10-02 15:20:00,
2013-10-02 11:25:00,65.2,49.6,30.07,West,280,4.0,9.0,57,0.00,,---,0.01,VWS V14.01,2013-10-02 15:25:00,
2013-10-02 11:30:00,65.4,49.3,30.07,West,264,2.0,7.0,56,0.00,,---,0.01,VWS V14.01,2013-10-02 15:30:00,
2013-10-02 11:33:00,65.6,49.5,30.07,West,260,3.0,7.0,56,0.00,,---,0.01,VWS V14.01,2013-10-02 15:33:00,
2013-10-02 11:38:00,66.1,50.4,30.07,WNW,293,2.0,7.0,57,0.00,,---,0.01,VWS V14.01,2013-10-02 15:38:00,
2013-10-02 11:43:00,65.9,48.8,30.07,WNW,298,3.0,9.0,54,0.00,,---,0.01,VWS V14.01,2013-10-02 15:43:00,
2013-10-02 11:48:00,66.2,49.6,30.07,WNW,291,2.0,9.0,55,0.00,,---,0.01,VWS V14.01,2013-10-02 15:48:00,
2013-10-02 11:53:00,66.4,48.8,30.07,WNW,284,3.0,9.0,53,0.00,,---,0.01,VWS V14.01,2013-10-02 15:53:00,
2013-10-02 11:58:00,66.4,49.8,30.07,WSW,247,3.0,9.0,55,0.00,,---,0.01,VWS V14.01,2013-10-02 15:58:00,
2013-10-02 12:00:00,64.6,51.3,30.07,WNW,301,3.0,8.0,62,0.00,,---,0.01,VWS V14.01,2013-10-02 16:00:00,
2013-10-02 12:03:00,66.5,48.9,30.07,West,273,1.0,7.0,53,0.00,,---,0.01,VWS V14.01,2013-10-02 16:03:00,
2013-10-02 12:08:00,66.5,46.8,30.07,North,0,2.0,7.0,49,0.00,,---,0.01,VWS V14.01,2013-10-02 16:08:00,
2013-10-02 12:13:00,66.9,47.7,30.07,SSE,162,2.0,7.0,50,0.00,,---,0.01,VWS V14.01,2013-10-02 16:13:00,
2013-10-02 12:19:00,67.0,47.2,30.08,South,172,3.0,7.0,49,0.00,,---,0.01,VWS V14.01,2013-10-02 16:19:00,
2013-10-02 12:24:00,67.0,45.6,30.08,SSE,161,2.0,8.0,46,0.00,,---,0.01,VWS V14.01,2013-10-02 16:24:00,
2013-10-02 12:29:00,67.2,47.4,30.08,South,183,1.0,8.0,49,0.00,,---,0.01,VWS V14.01,2013-10-02 16:29:00,
2013-10-02 12:30:00,65.4,49.3,30.07,WSW,258,7.0,9.0,56,0.00,,---,0.01,VWS V14.01,2013-10-02 16:30:00,
2013-10-02 12:34:00,67.2,49.0,30.08,West,263,2.0,9.0,52,0.00,,---,0.01,VWS V14.01,2013-10-02 16:34:00,
2013-10-02 12:39:00,67.4,45.3,30.07,SE,130,9.0,10.0,45,0.00,,---,0.01,VWS V14.01,2013-10-02 16:39:00,
2013-10-02 12:44:00,67.4,47.6,30.08,SSE,164,3.0,10.0,49,0.00,,---,0.01,VWS V14.01,2013-10-02 16:44:00,
2013-10-02 12:49:00,67.5,47.7,30.08,SE,142,4.0,10.0,49,0.00,,---,0.01,VWS V14.01,2013-10-02 16:49:00,
2013-10-02 12:54:00,67.5,47.7,30.07,South,170,0.0,10.0,49,0.00,,---,0.01,VWS V14.01,2013-10-02 16:54:00,
2013-10-02 12:59:00,67.5,47.1,30.08,SSE,168,5.0,10.0,48,0.00,,---,0.01,VWS V14.01,2013-10-02 16:59:00,
2013-10-02 13:00:00,66.4,48.8,30.07,West,271,2.0,9.0,53,0.00,,---,0.01,VWS V14.01,2013-10-02 17:00:00,
2013-10-02 13:04:00,67.5,46.0,30.07,SSE,159,3.0,12.0,46,0.00,,---,0.01,VWS V14.01,2013-10-02 17:04:00,
2013-10-02 13:09:00,67.4,46.5,30.08,SW,224,0.0,12.0,47,0.00,,---,0.01,VWS V14.01,2013-10-02 17:09:00,
2013-10-02 13:14:00,67.5,46.0,30.08,WSW,245,3.0,12.0,46,0.00,,---,0.01,VWS V14.01,2013-10-02 17:14:00,
2013-10-02 13:19:00,67.5,43.0,30.08,South,177,2.0,12.0,41,0.00,,---,0.01,VWS V14.01,2013-10-02 17:19:00,
2013-10-02 13:24:00,67.5,41.7,30.07,South,188,4.0,12.0,39,0.00,,---,0.01,VWS V14.01,2013-10-02 17:24:00,
2013-10-02 13:29:00,68.0,44.1,30.07,SSE,165,5.0,12.0,42,0.00,,---,0.01,VWS V14.01,2013-10-02 17:29:00,
2013-10-02 13:30:00,67.2,48.0,30.08,SE,135,4.0,8.0,50,0.00,,---,0.01,VWS V14.01,2013-10-02 17:30:00,
2013-10-02 13:34:00,68.0,45.3,30.07,SSE,151,0.0,7.0,44,0.00,,---,0.01,VWS V14.01,2013-10-02 17:34:00,
2013-10-02 13:39:00,68.0,44.1,30.08,South,178,4.0,8.0,42,0.00,,---,0.01,VWS V14.01,2013-10-02 17:39:00,
2013-10-02 13:44:00,67.7,44.4,30.07,ESE,123,6.0,8.0,43,0.00,,---,0.01,VWS V14.01,2013-10-02 17:44:00,
2013-10-02 13:49:00,67.8,45.1,30.07,SSE,166,3.0,8.0,44,0.00,,---,0.01,VWS V14.01,2013-10-02 17:49:00,
2013-10-02 13:54:00,68.0,45.3,30.07,SSE,164,4.0,10.0,44,0.00,,---,0.01,VWS V14.01,2013-10-02 17:54:00,
2013-10-02 13:59:00,68.0,45.3,30.07,SSE,151,0.0,10.0,44,0.00,,---,0.01,VWS V14.01,2013-10-02 17:59:00,
2013-10-02 14:00:00,67.5,47.7,30.07,East,93,3.0,10.0,49,0.00,,---,0.01,VWS V14.01,2013-10-02 18:00:00,
2013-10-02 14:04:00,68.0,45.3,30.07,SSE,166,5.0,8.0,44,0.00,,---,0.01,VWS V14.01,2013-10-02 18:04:00,
2013-10-02 14:09:00,68.2,44.3,30.07,South,175,2.0,9.0,42,0.00,,---,0.01,VWS V14.01,2013-10-02 18:09:00,
2013-10-02 14:14:00,68.5,45.8,30.07,SSE,163,6.0,9.0,44,0.00,,---,0.01,VWS V14.01,2013-10-02 18:14:00,
2013-10-02 14:19:00,68.5,43.9,30.07,North,4,3.0,9.0,41,0.00,,---,0.01,VWS V14.01,2013-10-02 18:19:00,
2013-10-02 14:24:00,68.5,41.9,30.07,NE,35,2.0,10.0,38,0.00,,---,0.01,VWS V14.01,2013-10-02 18:24:00,
2013-10-02 14:29:00,68.2,43.6,30.07,East,87,6.0,10.0,41,0.00,,---,0.01,VWS V14.01,2013-10-02 18:29:00,
2013-10-02 14:30:00,68.0,43.5,30.08,SE,135,6.0,12.0,41,0.00,,---,0.01,VWS V14.01,2013-10-02 18:30:00,
2013-10-02 14:35:00,68.2,43.0,30.07,SE,144,3.0,8.0,40,0.00,,---,0.01,VWS V14.01,2013-10-02 18:35:00,
2013-10-02 14:40:00,68.4,41.8,30.07,SSE,158,4.0,8.0,38,0.00,,---,0.01,VWS V14.01,2013-10-02 18:40:00,
2013-10-02 14:45:00,68.5,41.9,30.07,South,177,3.0,8.0,38,0.00,,---,0.01,VWS V14.01,2013-10-02 18:45:00,
2013-10-02 14:50:00,68.5,42.6,30.07,South,183,3.0,8.0,39,0.00,,---,0.01,VWS V14.01,2013-10-02 18:50:00,
2013-10-02 14:55:00,68.5,43.9,30.07,SSE,160,3.0,8.0,41,0.00,,---,0.01,VWS V14.01,2013-10-02 18:55:00,
2013-10-02 15:00:00,68.5,41.9,30.07,SSE,152,2.0,3.0,38,0.00,,---,0.01,VWS V14.01,2013-10-02 19:00:00,
2013-10-02 15:05:00,68.5,41.2,30.07,SSE,150,4.0,5.0,37,0.00,,---,0.01,VWS V14.01,2013-10-02 19:05:00,
2013-10-02 15:10:00,68.4,41.8,30.07,SE,127,2.0,9.0,38,0.00,,---,0.01,VWS V14.01,2013-10-02 19:10:00,
2013-10-02 15:15:00,68.5,39.8,30.07,South,178,4.0,9.0,35,0.00,,---,0.01,VWS V14.01,2013-10-02 19:15:00,
2013-10-02 15:20:00,68.7,42.1,30.07,West,266,2.0,9.0,38,0.00,,---,0.01,VWS V14.01,2013-10-02 19:20:00,
2013-10-02 15:25:00,68.9,42.3,30.07,NW,304,4.0,9.0,38,0.00,,---,0.01,VWS V14.01,2013-10-02 19:25:00,
2013-10-02 15:30:00,68.7,42.8,30.07,WNW,297,6.0,7.0,39,0.00,,---,0.01,VWS V14.01,2013-10-02 19:30:00,
2013-10-02 15:35:00,68.5,42.6,30.07,West,281,2.0,8.0,39,0.00,,---,0.01,VWS V14.01,2013-10-02 19:35:00,
2013-10-02 15:40:00,68.5,42.6,30.07,WNW,301,5.0,8.0,39,0.00,,---,0.01,VWS V14.01,2013-10-02 19:40:00,
2013-10-02 15:45:00,68.5,41.2,30.07,NNW,331,4.0,8.0,37,0.00,,---,0.01,VWS V14.01,2013-10-02 19:45:00,
2013-10-02 15:50:00,68.2,41.0,30.07,WNW,293,4.0,12.0,37,0.00,,---,0.01,VWS V14.01,2013-10-02 19:50:00,
2013-10-02 15:55:00,68.0,40.8,30.07,WSW,251,0.0,12.0,37,0.00,,---,0.01,VWS V14.01,2013-10-02 19:55:00,
2013-10-02 16:00:00,68.0,40.1,30.07,NW,320,1.0,7.0,36,0.00,,---,0.01,VWS V14.01,2013-10-02 20:00:00,
2013-10-02 16:05:00,68.4,42.5,30.07,West,279,5.0,8.0,39,0.00,,---,0.01,VWS V14.01,2013-10-02 20:05:00,
2013-10-02 16:10:00,68.4,42.5,30.07,West,268,3.0,8.0,39,0.00,,---,0.01,VWS V14.01,2013-10-02 20:10:00,
2013-10-02 16:15:00,68.4,41.1,30.07,WNW,302,2.0,8.0,37,0.00,,---,0.01,VWS V14.01,2013-10-02 20:15:00,
2013-10-02 16:20:00,68.5,41.2,30.07,WNW,293,4.0,8.0,37,0.00,,---,0.01,VWS V14.01,2013-10-02 20:20:00,
2013-10-02 16:25:00,68.5,41.2,30.07,WNW,297,2.0,8.0,37,0.00,,---,0.01,VWS V14.01,2013-10-02 20:25:00,
2013-10-02 16:30:00,68.2,40.2,30.07,SW,229,4.0,7.0,36,0.00,,---,0.01,VWS V14.01,2013-10-02 20:30:00,
2013-10-02 16:35:00,68.0,39.3,30.07,West,275,2.0,7.0,35,0.00,,---,0.01,VWS V14.01,2013-10-02 20:35:00,
2013-10-02 16:40:00,68.2,41.0,30.07,WNW,295,2.0,7.0,37,0.00,,---,0.01,VWS V14.01,2013-10-02 20:40:00,
2013-10-02 16:45:00,68.2,40.2,30.07,West,271,4.0,7.0,36,0.00,,---,0.01,VWS V14.01,2013-10-02 20:45:00,
2013-10-02 16:50:00,68.0,40.1,30.07,North,1,2.0,8.0,36,0.00,,---,0.01,VWS V14.01,2013-10-02 20:50:00,
2013-10-02 16:55:00,68.0,39.3,30.07,West,280,3.0,8.0,35,0.00,,---,0.01,VWS V14.01,2013-10-02 20:55:00,
2013-10-02 17:00:00,68.2,43.0,30.07,WNW,292,0.0,2.0,40,0.00,,---,0.01,VWS V14.01,2013-10-02 21:00:00,
2013-10-02 17:05:00,68.3,42.4,30.07,NW,309,0.0,5.0,39,0.00,,---,0.01,VWS V14.01,2013-10-02 21:05:00,
2013-10-02 17:10:00,68.4,42.5,30.07,NNW,331,3.0,6.0,39,0.00,,---,0.01,VWS V14.01,2013-10-02 21:10:00,
2013-10-02 17:15:00,68.4,42.5,30.06,NNW,340,2.0,6.0,39,0.00,,---,0.01,VWS V14.01,2013-10-02 21:15:00,
2013-10-02 17:20:00,68.4,41.1,30.06,West,278,2.0,6.0,37,0.00,,---,0.01,VWS V14.01,2013-10-02 21:20:00,
2013-10-02 17:25:00,68.2,43.0,30.07,NE,54,0.0,6.0,40,0.00,,---,0.01,VWS V14.01,2013-10-02 21:25:00,
2013-10-02 17:30:00,68.2,43.0,30.06,NE,54,0.0,0.0,40,0.00,,---,0.01,VWS V14.01,2013-10-02 21:30:00,
2013-10-02 17:36:00,68.2,43.0,30.07,NNW,336,2.0,6.0,40,0.00,,---,0.01,VWS V14.01,2013-10-02 21:36:00,
2013-10-02 17:41:00,67.7,41.2,30.06,WNW,298,0.0,6.0,38,0.00,,---,0.01,VWS V14.01,2013-10-02 21:41:00,
2013-10-02 17:46:00,67.7,41.9,30.06,WNW,300,1.0,6.0,39,0.00,,---,0.01,VWS V14.01,2013-10-02 21:46:00,
2013-10-02 17:51:00,67.7,41.9,30.06,WNW,297,2.0,6.0,39,0.00,,---,0.01,VWS V14.01,2013-10-02 21:51:00,
2013-10-02 17:56:00,67.4,42.3,30.06,WNW,297,1.0,6.0,40,0.00,,---,0.01,VWS V14.01,2013-10-02 21:56:00,
2013-10-02 18:00:00,68.2,41.0,30.07,WNW,292,1.0,8.0,37,0.00,,---,0.01,VWS V14.01,2013-10-02 22:00:00,
2013-10-02 18:01:00,67.4,43.5,30.06,WNW,297,0.0,3.0,42,0.00,,---,0.01,VWS V14.01,2013-10-02 22:01:00,
2013-10-02 18:06:00,67.5,43.0,30.06,WNW,297,0.0,3.0,41,0.00,,---,0.01,VWS V14.01,2013-10-02 22:06:00,
2013-10-02 18:11:00,67.4,43.5,30.06,WNW,297,0.0,5.0,42,0.00,,---,0.01,VWS V14.01,2013-10-02 22:11:00,
2013-10-02 18:16:00,67.4,42.9,30.06,WNW,297,0.0,5.0,41,0.00,,---,0.01,VWS V14.01,2013-10-02 22:16:00,
2013-10-02 18:21:00,67.2,44.0,30.06,WNW,297,0.0,5.0,43,0.00,,---,0.01,VWS V14.01,2013-10-02 22:21:00,
2013-10-02 18:26:00,66.4,44.4,30.06,WNW,295,0.0,5.0,45,0.00,,---,0.01,VWS V14.01,2013-10-02 22:26:00,
2013-10-02 18:30:00,68.0,42.8,30.07,NE,54,0.0,6.0,40,0.00,,---,0.01,VWS V14.01,2013-10-02 22:30:00,
2013-10-02 18:31:00,65.2,43.3,30.05,WNW,292,1.0,2.0,45,0.00,,---,0.01,VWS V14.01,2013-10-02 22:31:00,
2013-10-02 18:36:00,64.3,45.3,30.05,WNW,296,0.0,2.0,50,0.00,,---,0.03,VWS V14.01,2013-10-02 22:36:00,
2013-10-02 18:41:00,63.0,45.1,30.05,WNW,288,1.0,2.0,52,0.00,,---,0.01,VWS V14.01,2013-10-02 22:41:00,
2013-10-02 18:46:00,61.9,45.1,30.05,WNW,293,0.0,2.0,54,0.00,,---,0.01,VWS V14.01,2013-10-02 22:46:00,
2013-10-02 18:51:00,60.8,45.5,30.05,WNW,297,0.0,2.0,57,0.00,,---,0.01,VWS V14.01,2013-10-02 22:51:00,
2013-10-02 18:56:00,60.0,45.7,30.05,WNW,296,0.0,2.0,59,0.00,,---,0.01,VWS V14.01,2013-10-02 22:56:00,
2013-10-02 19:00:00,67.4,43.5,30.06,WNW,297,2.0,6.0,42,0.00,,---,0.01,VWS V14.01,2013-10-02 23:00:00,
2013-10-02 19:01:00,59.3,45.9,30.05,WNW,295,0.0,1.0,61,0.00,,---,0.01,VWS V14.01,2013-10-02 23:01:00,
2013-10-02 19:06:00,58.6,46.5,30.05,WNW,293,0.0,1.0,64,0.00,,---,0.01,VWS V14.01,2013-10-02 23:06:00,
2013-10-02 19:11:00,58.2,46.1,30.05,WNW,297,0.0,1.0,64,0.00,,---,0.01,VWS V14.01,2013-10-02 23:11:00,
2013-10-02 19:16:00,57.9,46.6,30.05,WNW,297,0.0,1.0,66,0.00,,---,0.01,VWS V14.01,2013-10-02 23:16:00,
2013-10-02 19:21:00,57.6,46.7,30.06,WNW,296,0.0,1.0,67,0.00,,---,0.01,VWS V14.01,2013-10-02 23:21:00,
2013-10-02 19:26:00,57.3,46.8,30.06,WNW,296,0.0,1.0,68,0.00,,---,0.01,VWS V14.01,2013-10-02 23:26:00,
2013-10-02 19:30:00,65.5,43.6,30.05,WNW,296,1.0,5.0,45,0.00,,---,0.01,VWS V14.01,2013-10-02 23:30:00,
2013-10-02 19:31:00,56.8,46.4,30.06,WNW,296,0.0,0.0,68,0.00,,---,0.01,VWS V14.01,2013-10-02 23:31:00,
2013-10-02 19:36:00,56.4,46.8,30.06,WNW,296,0.0,0.0,70,0.00,,---,0.01,VWS V14.01,2013-10-02 23:36:00,
2013-10-02 19:41:00,55.9,46.7,30.06,WNW,296,0.0,2.0,71,0.00,,---,0.01,VWS V14.01,2013-10-02 23:41:00,
2013-10-02 19:46:00,55.2,46.7,30.06,WNW,296,0.0,2.0,73,0.00,,---,0.01,VWS V14.01,2013-10-02 23:46:00,
2013-10-02 19:50:00,55.1,47.0,30.06,WNW,296,0.0,2.0,74,0.00,,---,0.01,VWS V14.01,2013-10-02 23:50:00,
2013-10-02 19:55:00,54.9,46.4,30.06,WNW,295,0.0,2.0,73,0.00,,---,0.01,VWS V14.01,2013-10-02 23:55:00,
2013-10-02 20:00:00,54.6,46.5,30.06,WNW,295,0.0,2.0,74,0.00,,---,0.01,VWS V14.01,2013-10-03 00:00:00,
2013-10-02 20:05:00,54.3,45.8,30.07,WNW,294,0.0,2.0,73,0.00,,---,0.01,VWS V14.01,2013-10-03 00:05:00,
2013-10-02 20:10:00,54.0,46.3,30.07,WNW,294,3.0,3.0,75,0.00,,---,0.01,VWS V14.01,2013-10-03 00:10:00,
2013-10-02 20:15:00,53.9,46.5,30.07,WNW,294,2.0,3.0,76,0.00,,---,0.01,VWS V14.01,2013-10-03 00:15:00,
2013-10-02 20:20:00,53.8,47.1,30.06,WNW,294,2.0,3.0,78,0.00,,---,0.01,VWS V14.01,2013-10-03 00:20:00,
2013-10-02 20:25:00,53.6,46.9,30.07,WNW,294,1.0,3.0,78,0.00,,---,0.01,VWS V14.01,2013-10-03 00:25:00,
2013-10-02 20:30:00,53.2,46.9,30.06,WNW,294,3.0,3.0,79,0.00,,---,0.01,VWS V14.01,2013-10-03 00:30:00,
2013-10-02 20:35:00,52.9,46.6,30.07,WNW,293,1.0,3.0,79,0.00,,---,0.01,VWS V14.01,2013-10-03 00:35:00,
2013-10-02 20:40:00,52.7,46.7,30.07,SE,143,0.0,3.0,80,0.00,,---,0.01,VWS V14.01,2013-10-03 00:40:00,
2013-10-02 20:45:00,52.6,46.9,30.07,SE,142,0.0,3.0,81,0.00,,---,0.01,VWS V14.01,2013-10-03 00:45:00,
2013-10-02 20:50:00,52.6,47.3,30.07,West,268,0.0,3.0,82,0.00,,---,0.01,VWS V14.01,2013-10-03 00:50:00,
2013-10-02 20:55:00,52.4,47.1,30.07,SE,146,0.0,3.0,82,0.00,,---,0.01,VWS V14.01,2013-10-03 00:55:00,
2013-10-02 21:00:00,52.3,47.0,30.07,WSW,250,0.0,0.0,82,0.00,,---,0.01,VWS V14.01,2013-10-03 01:00:00,
2013-10-02 21:05:00,52.1,46.8,30.07,WSW,255,0.0,0.0,82,0.00,,---,0.01,VWS V14.01,2013-10-03 01:05:00,
2013-10-02 21:10:00,52.0,47.0,30.07,West,259,0.0,0.0,83,0.00,,---,0.01,VWS V14.01,2013-10-03 01:10:00,
2013-10-02 21:15:00,52.1,47.4,30.07,West,270,0.0,0.0,84,0.00,,---,0.01,VWS V14.01,2013-10-03 01:15:00,
2013-10-02 21:20:00,52.1,47.4,30.07,West,271,1.0,2.0,84,0.00,,---,0.01,VWS V14.01,2013-10-03 01:20:00,
2013-10-02 21:25:00,52.3,47.6,30.07,West,272,1.0,3.0,84,0.00,,---,0.01,VWS V14.01,2013-10-03 01:25:00,
2013-10-02 21:30:00,52.4,47.7,30.07,West,270,1.0,3.0,84,0.00,,---,0.01,VWS V14.01,2013-10-03 01:30:00,
2013-10-02 21:35:00,52.6,47.9,30.07,West,271,2.0,3.0,84,0.00,,---,0.01,VWS V14.01,2013-10-03 01:35:00,
2013-10-02 21:40:00,52.7,47.7,30.07,West,262,3.0,4.0,83,0.00,,---,0.01,VWS V14.01,2013-10-03 01:40:00,
2013-10-02 21:45:00,52.6,47.3,30.07,West,261,0.0,4.0,82,0.00,,---,0.01,VWS V14.01,2013-10-03 01:45:00,
2013-10-02 21:50:00,52.6,47.3,30.07,West,266,0.0,4.0,82,0.00,,---,0.01,VWS V14.01,2013-10-03 01:50:00,
2013-10-02 21:55:00,52.6,47.3,30.07,West,263,3.0,4.0,82,0.00,,---,0.01,VWS V14.01,2013-10-03 01:55:00,
2013-10-02 22:00:00,52.4,47.1,30.07,West,264,0.0,0.0,82,0.00,,---,0.01,VWS V14.01,2013-10-03 02:00:00,
2013-10-02 22:05:00,52.3,47.0,30.07,West,264,0.0,0.0,82,0.00,,---,0.01,VWS V14.01,2013-10-03 02:05:00,
2013-10-02 22:10:00,52.3,47.0,30.07,West,264,0.0,3.0,82,0.00,,---,0.01,VWS V14.01,2013-10-03 02:10:00,
2013-10-02 22:15:00,52.3,47.0,30.07,West,263,0.0,3.0,82,0.00,,---,0.01,VWS V14.01,2013-10-03 02:15:00,
2013-10-02 22:20:00,52.1,46.8,30.07,West,266,1.0,3.0,82,0.00,,---,0.01,VWS V14.01,2013-10-03 02:20:00,
2013-10-02 22:25:00,51.7,46.7,30.07,WSW,253,0.0,3.0,83,0.00,,---,0.01,VWS V14.01,2013-10-03 02:25:00,
2013-10-02 22:30:00,51.2,46.5,30.07,WSW,253,0.0,1.0,84,0.00,,---,0.01,VWS V14.01,2013-10-03 02:30:00,
2013-10-02 22:36:00,50.9,46.2,30.07,WSW,249,0.0,2.0,84,0.00,,---,0.01,VWS V14.01,2013-10-03 02:36:00,
2013-10-02 22:41:00,50.8,46.5,30.07,WSW,253,0.0,2.0,85,0.00,,---,0.01,VWS V14.01,2013-10-03 02:41:00,
2013-10-02 22:46:00,50.5,46.5,30.07,WSW,257,0.0,2.0,86,0.00,,---,0.01,VWS V14.01,2013-10-03 02:46:00,
2013-10-02 22:51:00,50.5,46.5,30.07,West,268,0.0,2.0,86,0.00,,---,0.01,VWS V14.01,2013-10-03 02:51:00,
2013-10-02 22:56:00,50.4,46.4,30.08,WSW,255,0.0,2.0,86,0.00,,---,0.01,VWS V14.01,2013-10-03 02:56:00,
2013-10-02 23:00:00,52.6,46.9,30.07,West,265,0.0,4.0,81,0.00,,---,0.01,VWS V14.01,2013-10-03 03:00:00,
2013-10-02 23:01:00,50.2,46.2,30.08,West,259,0.0,3.0,86,0.00,,---,0.01,VWS V14.01,2013-10-03 03:01:00,
2013-10-02 23:06:00,50.1,46.4,30.07,West,259,2.0,3.0,87,0.00,,---,0.01,VWS V14.01,2013-10-03 03:06:00,
2013-10-02 23:11:00,49.9,46.5,30.07,West,260,2.0,3.0,88,0.00,,---,0.01,VWS V14.01,2013-10-03 03:11:00,
2013-10-02 23:16:00,50.1,46.4,30.07,WSW,258,0.0,3.0,87,0.00,,---,0.01,VWS V14.01,2013-10-03 03:16:00,
2013-10-02 23:21:00,50.1,46.7,30.07,West,260,0.0,3.0,88,0.00,,---,0.01,VWS V14.01,2013-10-03 03:21:00,
2013-10-02 23:26:00,49.9,46.2,30.07,West,264,1.0,3.0,87,0.00,,---,0.01,VWS V14.01,2013-10-03 03:26:00,
2013-10-02 23:30:00,51.4,46.4,30.07,WSW,256,0.0,3.0,83,0.00,,---,0.01,VWS V14.01,2013-10-03 03:30:00,
2013-10-02 23:31:00,49.9,46.5,30.08,West,277,0.0,2.0,88,0.00,,---,0.01,VWS V14.01,2013-10-03 03:31:00,
2013-10-02 23:36:00,49.9,46.5,30.08,West,281,1.0,2.0,88,0.00,,---,0.01,VWS V14.01,2013-10-03 03:36:00,
2013-10-02 23:41:00,49.8,46.4,30.08,WNW,287,1.0,2.0,88,0.00,,---,0.01,VWS V14.01,2013-10-03 03:41:00,
2013-10-02 23:46:00,49.8,46.7,30.08,WNW,288,1.0,3.0,89,0.00,,---,0.01,VWS V14.01,2013-10-03 03:46:00,
2013-10-02 23:51:00,49.8,46.7,30.08,WNW,288,2.0,4.0,89,0.00,,---,0.01,VWS V14.01,2013-10-03 03:51:00,
2013-10-02 23:56:00,49.8,46.7,30.07,WNW,288,1.0,4.0,89,0.00,,---,0.01,VWS V14.01,2013-10-03 03:56:00,